Time;durP1;ratioP1;P1;durP2;ratioP2;P2;SDS_P1;SDS_P2;PMS_P1;PMS_P2;Temp;Humidity;BMP_temperature;BMP_pressure;BME280_temperature;BME280_humidity;BME280_pressure;Samples;Min_cycle;Max_cycle;Signal;HPM_P1;HPM_P2
2023/01/25 04:02:01;;;;;;;10.73;9.87;;;3.00;99.90;;;;;;5397395;22;20792;-77
2023/01/25 04:04:27;;;;;;;15.50;12.47;;;3.00;99.90;;;;;;4976560;28;20225;-77
2023/01/25 04:06:53;;;;;;;15.90;12.40;;;3.00;99.90;;;;;;4993356;28;20268;-78
2023/01/25 04:09:19;;;;;;;12.97;11.57;;;3.00;99.90;;;;;;4977213;28;20184;-77
2023/01/25 04:11:47;;;;;;;13.00;10.50;;;3.00;99.90;;;;;;4983880;28;20773;-78
2023/01/25 04:14:13;;;;;;;18.90;13.87;;;3.00;99.90;;;;;;4974997;28;20209;-77
2023/01/25 04:16:39;;;;;;;15.20;12.57;;;3.00;99.90;;;;;;5018836;22;20233;-78
2023/01/25 04:19:05;;;;;;;12.60;11.33;;;3.00;99.90;;;;;;4997389;28;20584;-75
2023/01/25 04:21:30;;;;;;;18.27;13.90;;;3.00;99.90;;;;;;4999068;28;20536;-77
2023/01/25 04:23:56;;;;;;;13.53;12.03;;;2.90;99.90;;;;;;5017545;28;20747;-76
2023/01/25 04:26:22;;;;;;;16.17;13.47;;;2.90;99.90;;;;;;5014270;28;20782;-77
2023/01/25 04:28:48;;;;;;;16.40;14.03;;;2.90;99.90;;;;;;5009366;28;20209;-78
2023/01/25 04:31:13;;;;;;;15.30;12.67;;;2.90;99.90;;;;;;4994993;28;20865;-77
2023/01/25 04:33:39;;;;;;;15.90;12.87;;;3.00;99.90;;;;;;4996124;28;20187;-77
2023/01/25 04:36:05;;;;;;;16.93;13.97;;;3.00;99.90;;;;;;4997452;28;20270;-77
2023/01/25 04:38:31;;;;;;;13.10;11.63;;;3.00;99.90;;;;;;4994172;28;20275;-77
2023/01/25 04:40:57;;;;;;;12.50;11.37;;;3.00;99.90;;;;;;4995581;28;20624;-77
2023/01/25 04:43:23;;;;;;;18.33;15.27;;;2.90;99.90;;;;;;5012156;28;20214;-76
2023/01/25 04:45:49;;;;;;;18.03;14.10;;;2.90;99.90;;;;;;4994858;28;20276;-77
2023/01/25 04:48:15;;;;;;;18.70;14.67;;;2.90;99.90;;;;;;5011432;28;20198;-77
2023/01/25 04:50:41;;;;;;;21.03;15.50;;;2.90;99.90;;;;;;4994467;28;20175;-76
2023/01/25 04:53:08;;;;;;;16.97;14.27;;;3.00;99.90;;;;;;4974677;28;20191;-77
2023/01/25 04:55:34;;;;;;;20.53;13.70;;;3.00;99.90;;;;;;4975971;28;20625;-77
2023/01/25 04:58:01;;;;;;;13.70;12.27;;;3.00;99.90;;;;;;4992243;28;20198;-77
2023/01/25 05:00:28;;;;;;;18.37;13.23;;;2.90;99.90;;;;;;5009178;28;20628;-77
2023/01/25 05:02:54;;;;;;;21.63;16.03;;;2.90;99.90;;;;;;5013075;28;20674;-76
2023/01/25 05:05:19;;;;;;;21.60;16.23;;;2.90;99.90;;;;;;4995011;28;20206;-76
2023/01/25 05:07:45;;;;;;;15.83;13.50;;;2.90;99.90;;;;;;4984237;28;20183;-77
2023/01/25 05:10:11;;;;;;;16.03;12.63;;;2.90;99.90;;;;;;5007644;28;20178;-78
2023/01/25 05:12:37;;;;;;;19.03;13.43;;;2.90;99.90;;;;;;5013658;28;20182;-78
2023/01/25 05:15:04;;;;;;;15.27;13.67;;;2.90;99.90;;;;;;5014220;28;20225;-78
2023/01/25 05:17:30;;;;;;;11.33;10.27;;;2.90;99.90;;;;;;4995956;28;20189;-78
2023/01/25 05:19:56;;;;;;;13.60;11.30;;;2.90;99.90;;;;;;4983252;28;20280;-76
2023/01/25 05:22:22;;;;;;;12.77;11.33;;;2.90;99.90;;;;;;4992098;28;20188;-78
2023/01/25 05:24:47;;;;;;;14.27;11.43;;;2.90;99.90;;;;;;4992105;28;20215;-78
2023/01/25 05:27:16;;;;;;;11.87;9.43;;;2.90;99.90;;;;;;4974586;28;20184;-77
2023/01/25 05:29:44;;;;;;;11.53;10.20;;;2.90;99.90;;;;;;4975753;28;20174;-77
2023/01/25 05:32:11;;;;;;;12.87;11.47;;;2.90;99.90;;;;;;4991974;28;20235;-77
2023/01/25 05:34:37;;;;;;;11.63;10.30;;;2.90;99.90;;;;;;4999253;28;20234;-75
2023/01/25 05:37:05;;;;;;;11.77;10.57;;;2.90;99.90;;;;;;4999359;28;20194;-77
2023/01/25 05:39:31;;;;;;;11.83;10.53;;;2.80;99.90;;;;;;4983197;28;20200;-78
2023/01/25 05:41:57;;;;;;;11.70;10.57;;;2.90;99.90;;;;;;4995493;28;20638;-71
2023/01/25 05:44:23;;;;;;;15.30;11.13;;;2.80;99.90;;;;;;4997099;28;20222;-71
2023/01/25 05:46:49;;;;;;;13.60;12.07;;;2.90;99.90;;;;;;5010902;28;20234;-71
2023/01/25 05:49:15;;;;;;;12.63;11.43;;;2.90;99.90;;;;;;5005256;28;20182;-71
2023/01/25 05:51:41;;;;;;;11.93;10.73;;;2.90;99.90;;;;;;4974242;28;20182;-72
2023/01/25 05:54:12;;;;;;;10.97;9.93;;;2.90;99.90;;;;;;4974109;28;20180;-71
2023/01/25 05:56:38;;;;;;;11.87;9.40;;;2.80;99.90;;;;;;4991321;28;20273;-72
2023/01/25 05:59:03;;;;;;;9.80;8.87;;;2.80;99.90;;;;;;4997225;28;20648;-72
2023/01/25 06:01:29;;;;;;;11.53;10.33;;;2.80;99.90;;;;;;4993499;28;20195;-72
2023/01/25 06:03:55;;;;;;;13.33;11.83;;;2.80;99.90;;;;;;4992698;28;20253;-71
2023/01/25 06:06:21;;;;;;;13.60;12.23;;;2.80;99.90;;;;;;5011106;28;20197;-71
2023/01/25 06:08:47;;;;;;;13.50;12.10;;;2.80;99.90;;;;;;4977473;28;20183;-72
2023/01/25 06:11:16;;;;;;;14.70;12.20;;;2.80;99.90;;;;;;5010543;28;20728;-72
2023/01/25 06:13:41;;;;;;;13.90;12.53;;;2.90;99.90;;;;;;5010824;28;20187;-72
2023/01/25 06:16:07;;;;;;;13.40;12.00;;;2.90;99.90;;;;;;4992989;28;20221;-71
2023/01/25 06:18:34;;;;;;;13.30;11.97;;;2.90;99.90;;;;;;5007927;28;20191;-72
2023/01/25 06:21:01;;;;;;;13.23;11.90;;;2.90;99.90;;;;;;4990956;28;20814;-72
2023/01/25 06:23:27;;;;;;;14.47;11.90;;;2.90;99.90;;;;;;4989919;28;20226;-72
2023/01/25 06:25:57;;;;;;;15.43;11.73;;;2.90;99.90;;;;;;4971835;28;20582;-70
2023/01/25 06:28:23;;;;;;;14.67;13.10;;;2.90;99.90;;;;;;4989923;28;20190;-70
2023/01/25 06:30:49;;;;;;;18.20;13.07;;;3.00;99.90;;;;;;5000585;28;20178;-69
2023/01/25 06:33:15;;;;;;;13.93;11.33;;;3.00;99.90;;;;;;4973745;28;20567;-70
2023/01/25 06:35:42;;;;;;;15.27;12.33;;;3.10;99.90;;;;;;4990287;28;20205;-70
2023/01/25 06:38:08;;;;;;;14.00;12.07;;;3.10;99.90;;;;;;4973334;28;20191;-70
2023/01/25 06:40:34;;;;;;;14.03;11.33;;;3.10;99.90;;;;;;4991272;28;20827;-72
2023/01/25 06:43:07;;;;;;;20.53;11.40;;;3.20;99.90;;;;;;4992117;28;20195;-76
2023/01/25 06:45:33;;;;;;;14.97;10.80;;;3.20;99.90;;;;;;4973777;28;20211;-72
2023/01/25 06:47:59;;;;;;;13.97;11.07;;;3.20;99.90;;;;;;4990825;28;20183;-72
2023/01/25 06:50:25;;;;;;;13.20;11.00;;;3.20;99.90;;;;;;4990089;28;20197;-72
2023/01/25 06:52:52;;;;;;;21.17;19.07;;;3.10;99.90;;;;;;5012006;28;20181;-72
2023/01/25 06:55:17;;;;;;;14.40;12.13;;;3.10;99.90;;;;;;4996846;28;20196;-73
2023/01/25 06:57:43;;;;;;;14.87;11.63;;;3.20;99.90;;;;;;5013839;28;20231;-73
2023/01/25 07:00:10;;;;;;;18.93;17.03;;;3.20;99.90;;;;;;4996220;28;20726;-72
2023/01/25 07:02:36;;;;;;;13.97;11.73;;;3.10;99.90;;;;;;4998614;28;20265;-73
2023/01/25 07:05:02;;;;;;;15.93;13.03;;;3.10;99.90;;;;;;4976659;28;20238;-72
2023/01/25 07:07:28;;;;;;;17.40;13.20;;;3.10;99.90;;;;;;4994066;28;20183;-72
2023/01/25 07:09:54;;;;;;;16.40;13.67;;;3.20;99.90;;;;;;4995008;28;20192;-72
2023/01/25 07:12:21;;;;;;;17.07;13.67;;;3.20;99.90;;;;;;4994665;28;20174;-71
2023/01/25 07:14:48;;;;;;;16.40;12.93;;;3.20;99.90;;;;;;4994283;28;20663;-75
2023/01/25 07:17:14;;;;;;;15.20;13.50;;;3.20;99.90;;;;;;4993944;28;20185;-73
2023/01/25 07:19:40;;;;;;;17.37;15.33;;;3.20;99.90;;;;;;4985659;28;20573;-72
2023/01/25 07:22:06;;;;;;;17.80;16.00;;;3.20;99.90;;;;;;5013660;28;20266;-75
2023/01/25 07:24:31;;;;;;;24.13;21.77;;;3.30;99.90;;;;;;5013448;28;20232;-73
2023/01/25 07:26:57;;;;;;;20.77;18.60;;;3.30;99.90;;;;;;5013479;28;20270;-72
2023/01/25 07:29:23;;;;;;;21.77;19.33;;;3.30;99.90;;;;;;5006084;28;20191;-72
2023/01/25 07:31:49;;;;;;;21.43;19.27;;;3.30;99.90;;;;;;4994405;28;20939;-73
2023/01/25 07:34:15;;;;;;;20.97;18.87;;;3.30;99.90;;;;;;4999302;28;20183;-73
2023/01/25 07:36:42;;;;;;;20.53;18.27;;;3.40;99.90;;;;;;4977051;28;20295;-73
2023/01/25 07:39:11;;;;;;;22.17;20.00;;;3.40;99.90;;;;;;4981988;28;20666;-73
2023/01/25 07:41:38;;;;;;;21.90;19.80;;;3.40;99.90;;;;;;5014616;28;20252;-74
2023/01/25 07:44:04;;;;;;;23.17;20.97;;;3.40;99.90;;;;;;5014698;28;20609;-75
2023/01/25 07:46:30;;;;;;;22.53;20.40;;;3.40;99.90;;;;;;5013598;28;20200;-74
2023/01/25 07:48:57;;;;;;;21.77;19.57;;;3.40;99.90;;;;;;5010094;28;20567;-75
2023/01/25 07:51:25;;;;;;;20.80;18.80;;;3.40;99.90;;;;;;4976726;28;20188;-75
2023/01/25 07:53:54;;;;;;;46.63;43.27;;;3.40;99.90;;;;;;4976901;28;20603;-74
2023/01/25 07:56:22;;;;;;;21.13;19.00;;;3.40;99.90;;;;;;4993795;28;20218;-75
2023/01/25 07:58:48;;;;;;;20.17;18.27;;;3.40;99.90;;;;;;4977775;28;20183;-76
2023/01/25 08:01:16;;;;;;;39.60;36.00;;;3.40;99.90;;;;;;5013134;28;20241;-74
2023/01/25 08:03:42;;;;;;;18.33;15.60;;;3.40;99.90;;;;;;4995341;28;20213;-74
2023/01/25 08:06:09;;;;;;;19.20;16.73;;;3.40;99.90;;;;;;5012821;28;20758;-74
2023/01/25 08:08:38;;;;;;;18.20;16.23;;;3.50;99.90;;;;;;5012504;28;20185;-74
2023/01/25 08:11:10;;;;;;;17.37;14.83;;;3.50;99.90;;;;;;4993157;28;20854;-74
2023/01/25 08:13:36;;;;;;;19.17;15.40;;;3.60;99.90;;;;;;4976185;28;20186;-74
2023/01/25 08:16:02;;;;;;;19.83;15.70;;;3.50;99.90;;;;;;4975563;28;20221;-74
2023/01/25 08:18:28;;;;;;;17.87;14.97;;;3.50;99.90;;;;;;4992777;28;20198;-73
2023/01/25 08:20:57;;;;;;;18.70;15.47;;;3.50;99.90;;;;;;5010862;28;20190;-73
2023/01/25 08:23:23;;;;;;;22.20;17.77;;;3.50;99.90;;;;;;5012335;28;20216;-73
2023/01/25 08:25:49;;;;;;;17.87;15.93;;;3.50;99.90;;;;;;4994994;28;20199;-73
2023/01/25 08:28:15;;;;;;;18.47;15.97;;;3.50;99.90;;;;;;5012020;28;20182;-73
2023/01/25 08:30:41;;;;;;;18.73;16.57;;;3.60;99.90;;;;;;4996841;28;20189;-73
2023/01/25 08:33:07;;;;;;;18.43;16.43;;;3.60;99.90;;;;;;5010650;28;20197;-73
2023/01/25 08:35:34;;;;;;;16.57;14.90;;;3.60;99.90;;;;;;5012305;28;20283;-73
2023/01/25 08:38:00;;;;;;;21.13;16.60;;;3.60;99.90;;;;;;5012044;28;20183;-74
2023/01/25 08:40:26;;;;;;;19.13;15.40;;;3.60;99.90;;;;;;4998831;28;20179;-73
2023/01/25 08:42:51;;;;;;;19.63;15.33;;;3.60;99.90;;;;;;4975190;28;20180;-74
2023/01/25 08:45:17;;;;;;;19.10;15.87;;;3.50;99.90;;;;;;4992656;28;20289;-73
2023/01/25 08:47:43;;;;;;;17.83;15.97;;;3.50;99.90;;;;;;4974753;28;20939;-73
2023/01/25 08:50:09;;;;;;;18.37;16.13;;;3.50;99.90;;;;;;5003453;28;20264;-71
2023/01/25 08:52:35;;;;;;;17.57;14.70;;;3.50;99.90;;;;;;5012222;28;20182;-70
2023/01/25 08:55:01;;;;;;;22.87;16.53;;;3.60;99.90;;;;;;5012438;28;20754;-72
2023/01/25 08:57:26;;;;;;;20.03;15.70;;;3.60;99.90;;;;;;5012451;28;20227;-72
2023/01/25 08:59:52;;;;;;;18.63;14.43;;;3.70;99.90;;;;;;4986488;28;20341;-72
2023/01/25 09:02:20;;;;;;;18.13;14.03;;;3.60;99.90;;;;;;4975126;28;20556;-73
2023/01/25 09:04:46;;;;;;;17.07;14.27;;;3.60;99.90;;;;;;4975292;28;20210;-77
2023/01/25 09:07:11;;;;;;;19.30;15.93;;;3.60;99.90;;;;;;4991969;28;20652;-72
2023/01/25 09:09:37;;;;;;;18.77;14.10;;;3.60;99.90;;;;;;4997776;28;20194;-72
2023/01/25 09:12:03;;;;;;;17.57;14.77;;;3.60;99.90;;;;;;5011499;28;20192;-72
2023/01/25 09:14:29;;;;;;;19.37;14.87;;;3.50;99.90;;;;;;5011321;28;20275;-72
2023/01/25 09:16:55;;;;;;;19.10;15.60;;;3.40;99.90;;;;;;4993817;28;20276;-72
2023/01/25 09:19:21;;;;;;;18.23;15.10;;;3.40;99.90;;;;;;4989773;28;20186;-73
2023/01/25 09:21:47;;;;;;;21.90;17.57;;;3.40;99.90;;;;;;4974676;28;20315;-74
2023/01/25 09:24:13;;;;;;;19.87;16.47;;;3.40;99.90;;;;;;4997459;28;20303;-72
2023/01/25 09:26:41;;;;;;;22.63;16.57;;;3.40;99.90;;;;;;4995798;28;20203;-71
2023/01/25 09:29:09;;;;;;;18.20;15.43;;;3.40;99.90;;;;;;4993498;28;20201;-71
2023/01/25 09:31:43;;;;;;;19.40;15.17;;;3.40;99.90;;;;;;5012040;28;20663;-71
2023/01/25 09:34:12;;;;;;;20.33;18.17;;;3.30;99.90;;;;;;4994261;28;20570;-76
2023/01/25 09:36:38;;;;;;;19.47;17.20;;;3.20;99.90;;;;;;4993435;28;20210;-72
2023/01/25 09:39:04;;;;;;;20.57;17.10;;;3.20;99.90;;;;;;5010135;28;20201;-70
2023/01/25 09:41:59;;;;;;;20.00;16.27;;;3.30;99.90;;;;;;4993160;28;20189;-69
2023/01/25 09:44:28;;;;;;;21.43;17.30;;;3.30;99.90;;;;;;5011432;28;20211;-71
2023/01/25 09:47:26;;;;;;;19.13;17.13;;;3.40;99.90;;;;;;5011028;28;20208;-72
2023/01/25 09:50:26;;;;;;;14.73;12.53;;;3.30;99.90;;;;;;5004415;28;20205;-74
2023/01/25 09:53:13;;;;;;;21.33;17.80;;;3.30;99.90;;;;;;4991724;28;20656;-71
2023/01/25 09:55:40;;;;;;;19.70;17.60;;;3.30;99.90;;;;;;4974448;28;20268;-71
2023/01/25 09:58:17;;;;;;;20.20;17.27;;;3.30;99.90;;;;;;4994212;28;20261;-71
2023/01/25 10:00:49;;;;;;;21.10;17.93;;;3.30;99.90;;;;;;4993483;28;20188;-74
2023/01/25 10:03:21;;;;;;;22.67;18.33;;;3.30;99.90;;;;;;5011270;28;20183;-72
2023/01/25 10:05:49;;;;;;;15.90;14.20;;;3.30;99.90;;;;;;4993390;28;20211;-70
2023/01/25 10:08:37;;;;;;;27.00;17.60;;;3.30;99.90;;;;;;5006707;28;20174;-72
2023/01/25 10:11:06;;;;;;;24.10;18.73;;;3.30;99.90;;;;;;4974105;28;20553;-72
2023/01/25 10:13:32;;;;;;;23.63;17.30;;;3.30;99.90;;;;;;4996085;28;20194;-72
2023/01/25 10:16:12;;;;;;;23.87;17.47;;;3.30;99.90;;;;;;5025209;22;20231;-74
2023/01/25 10:18:55;;;;;;;19.47;17.47;;;3.30;99.90;;;;;;4998440;28;20312;-74
2023/01/25 10:21:29;;;;;;;20.07;17.13;;;3.30;99.90;;;;;;4986895;28;20194;-74
2023/01/25 10:24:04;;;;;;;19.47;17.30;;;3.40;99.90;;;;;;4973817;28;20213;-74
2023/01/25 10:26:35;;;;;;;22.30;18.57;;;3.30;99.90;;;;;;4989032;28;20217;-74
2023/01/25 10:29:16;;;;;;;28.57;25.70;;;3.30;99.90;;;;;;4994328;28;20177;-74
2023/01/25 10:31:49;;;;;;;23.43;19.20;;;3.40;99.90;;;;;;4977865;28;20204;-74
2023/01/25 10:34:38;;;;;;;20.43;17.03;;;3.40;99.90;;;;;;4994856;28;20187;-73
2023/01/25 10:37:15;;;;;;;21.60;18.97;;;3.40;99.90;;;;;;4988629;28;20204;-73
2023/01/25 10:40:12;;;;;;;22.30;17.97;;;3.40;99.90;;;;;;4994291;28;20561;-72
2023/01/25 10:43:01;;;;;;;22.43;17.50;;;3.40;99.90;;;;;;4994922;28;20236;-73
2023/01/25 10:45:27;;;;;;;14.50;12.50;;;3.40;99.90;;;;;;4987600;28;20745;-73
2023/01/25 10:48:08;;;;;;;21.93;16.63;;;3.40;99.90;;;;;;4975867;28;20188;-73
2023/01/25 10:50:45;;;;;;;21.13;17.23;;;3.40;99.90;;;;;;4977500;28;20179;-73
2023/01/25 10:53:20;;;;;;;24.00;18.27;;;3.30;99.90;;;;;;4994885;28;20186;-73
2023/01/25 10:56:18;;;;;;;24.93;19.07;;;3.30;99.90;;;;;;4992393;28;20206;-73
2023/01/25 10:58:50;;;;;;;23.50;17.87;;;3.40;99.90;;;;;;4980721;28;20186;-73
2023/01/25 11:01:31;;;;;;;22.33;17.27;;;3.50;99.90;;;;;;4973927;28;20593;-73
2023/01/25 11:03:58;;;;;;;21.73;17.67;;;3.50;99.90;;;;;;4977382;28;20201;-73
2023/01/25 11:06:45;;;;;;;22.37;18.67;;;3.50;99.90;;;;;;4957466;28;20258;-73
2023/01/25 11:09:20;;;;;;;26.27;20.00;;;3.50;99.90;;;;;;4968337;28;20178;-73
2023/01/25 11:12:06;;;;;;;21.13;16.93;;;3.50;99.90;;;;;;4994200;28;20207;-73
2023/01/25 11:14:33;;;;;;;26.43;18.83;;;3.50;99.90;;;;;;4994370;28;20223;-73
2023/01/25 11:17:00;;;;;;;23.93;17.80;;;3.40;99.90;;;;;;4993576;28;20627;-73
2023/01/25 11:19:37;;;;;;;24.47;18.30;;;3.40;99.90;;;;;;4976647;28;20281;-73
2023/01/25 11:22:20;;;;;;;28.40;21.00;;;3.40;99.90;;;;;;4977783;28;20241;-73
2023/01/25 11:24:46;;;;;;;28.77;20.33;;;3.40;99.90;;;;;;4993879;28;20210;-73
2023/01/25 11:27:26;;;;;;;27.10;20.03;;;3.30;99.90;;;;;;4962026;28;20234;-73
2023/01/25 11:30:04;;;;;;;27.27;21.80;;;3.30;99.90;;;;;;4972155;28;20186;-73
2023/01/25 11:32:30;;;;;;;24.00;19.83;;;3.30;99.90;;;;;;4993612;28;20191;-74
2023/01/25 11:34:57;;;;;;;30.10;23.37;;;3.30;99.90;;;;;;4994183;28;20267;-74
2023/01/25 11:37:43;;;;;;;30.47;23.17;;;3.30;99.90;;;;;;4993050;28;20278;-73
2023/01/25 11:40:31;;;;;;;26.43;20.30;;;3.40;99.90;;;;;;4975851;28;20271;-73
2023/01/25 11:43:37;;;;;;;25.20;20.50;;;3.40;99.90;;;;;;4976444;28;20194;-74
2023/01/25 11:46:21;;;;;;;24.43;18.23;;;3.40;99.90;;;;;;4976735;28;20210;-74
2023/01/25 11:49:04;;;;;;;26.93;21.67;;;3.40;99.90;;;;;;4975693;28;20215;-74
2023/01/25 11:51:58;;;;;;;26.30;21.53;;;3.40;99.90;;;;;;4993686;28;20190;-73
2023/01/25 11:55:02;;;;;;;26.83;19.93;;;3.50;99.90;;;;;;4976266;28;20221;-73
2023/01/25 11:57:49;;;;;;;29.63;20.67;;;3.50;99.90;;;;;;4992940;28;20185;-74
2023/01/25 12:00:29;;;;;;;28.60;19.87;;;3.50;99.90;;;;;;4993055;28;20655;-74
2023/01/25 12:03:27;;;;;;;24.47;19.97;;;3.50;99.90;;;;;;4993242;28;20187;-74
2023/01/25 12:06:20;;;;;;;27.83;20.83;;;3.50;99.90;;;;;;4992727;28;20225;-74
2023/01/25 12:09:07;;;;;;;26.50;20.67;;;3.50;99.90;;;;;;4992359;28;20583;-73
2023/01/25 12:12:08;;;;;;;22.77;17.50;;;3.50;99.90;;;;;;4993286;28;20713;-74
2023/01/25 12:14:53;;;;;;;27.27;22.43;;;3.40;99.90;;;;;;4992955;28;20214;-72
2023/01/25 12:17:49;;;;;;;18.00;16.07;;;3.40;99.90;;;;;;4992820;28;20197;-73
2023/01/25 12:20:24;;;;;;;26.40;22.07;;;3.30;99.90;;;;;;4975682;28;20195;-73
2023/01/25 12:23:02;;;;;;;24.93;21.80;;;3.40;99.90;;;;;;4976938;28;20194;-74
2023/01/25 12:25:30;;;;;;;22.93;18.07;;;3.40;99.90;;;;;;4988285;28;20205;-73
2023/01/25 12:28:26;;;;;;;29.13;21.90;;;3.40;99.90;;;;;;4975472;28;20178;-74
2023/01/25 12:30:58;;;;;;;28.60;22.70;;;3.30;99.90;;;;;;4959537;28;20207;-74
2023/01/25 12:33:41;;;;;;;27.27;23.67;;;3.30;99.90;;;;;;4963587;28;20187;-74
2023/01/25 12:36:24;;;;;;;28.93;25.20;;;3.40;99.90;;;;;;4975078;28;20219;-73
2023/01/25 12:39:05;;;;;;;35.13;24.40;;;3.40;99.90;;;;;;4991777;28;20198;-74
2023/01/25 12:41:56;;;;;;;33.17;24.73;;;3.50;99.90;;;;;;4970872;28;20324;-74
2023/01/25 12:44:31;;;;;;;36.47;24.87;;;3.60;99.90;;;;;;4997964;28;20211;-74
2023/01/25 12:47:20;;;;;;;64.50;59.23;;;3.60;99.90;;;;;;4992369;28;20210;-72
2023/01/25 12:50:01;;;;;;;30.57;20.77;;;3.60;99.90;;;;;;4974385;28;20249;-72
2023/01/25 12:52:31;;;;;;;33.13;22.87;;;3.50;99.90;;;;;;4973199;28;20183;-73
2023/01/25 12:55:00;;;;;;;33.97;22.53;;;3.40;99.90;;;;;;4977813;28;20267;-72
2023/01/25 12:57:43;;;;;;;31.03;24.87;;;3.30;99.90;;;;;;4955089;28;20190;-72
2023/01/25 13:00:22;;;;;;;31.10;23.77;;;3.20;99.90;;;;;;4988117;28;20192;-73
2023/01/25 13:03:06;;;;;;;33.10;26.17;;;3.30;99.90;;;;;;4991853;28;20192;-72
2023/01/25 13:06:13;;;;;;;28.10;23.70;;;3.30;99.90;;;;;;4974258;28;20311;-73
2023/01/25 13:08:57;;;;;;;27.40;20.87;;;3.30;99.90;;;;;;4896199;29;20197;-73
2023/01/25 13:11:43;;;;;;;31.93;21.60;;;3.40;99.90;;;;;;4967300;28;20580;-71
2023/01/25 13:14:15;;;;;;;25.60;20.47;;;3.40;99.90;;;;;;4973880;28;20215;-71
2023/01/25 13:16:47;;;;;;;26.37;20.13;;;3.30;99.90;;;;;;4991242;28;20214;-73
2023/01/25 13:19:28;;;;;;;38.80;21.00;;;3.20;99.90;;;;;;4991470;28;20649;-72
2023/01/25 13:21:57;;;;;;;28.07;18.13;;;3.10;99.90;;;;;;4992249;28;20197;-75
2023/01/25 13:24:31;;;;;;;30.83;18.40;;;3.00;99.90;;;;;;4975643;28;20211;-74
2023/01/25 13:27:29;;;;;;;30.13;19.80;;;3.10;99.90;;;;;;4991497;28;20202;-70
2023/01/25 13:29:59;;;;;;;30.20;19.07;;;3.10;99.90;;;;;;4991317;28;20186;-70
2023/01/25 13:32:28;;;;;;;38.43;22.20;;;3.30;99.90;;;;;;4990840;28;20246;-70
2023/01/25 13:34:53;;;;;;;30.00;22.17;;;3.40;99.90;;;;;;4991464;28;20178;-70
2023/01/25 13:37:25;;;;;;;32.47;26.60;;;3.40;99.90;;;;;;4973739;28;20675;-70
2023/01/25 13:39:53;;;;;;;30.13;23.00;;;3.50;99.90;;;;;;4974421;28;20188;-70
2023/01/25 13:42:24;;;;;;;30.43;21.73;;;3.50;99.90;;;;;;4991915;28;20190;-70
2023/01/25 13:44:58;;;;;;;34.40;20.77;;;3.40;99.90;;;;;;4991785;28;20222;-71
2023/01/25 13:47:31;;;;;;;30.53;20.97;;;3.30;99.90;;;;;;4985667;28;20264;-67
2023/01/25 13:49:57;;;;;;;24.13;16.33;;;3.20;99.90;;;;;;4980375;28;20512;-67
2023/01/25 13:52:24;;;;;;;32.40;20.60;;;3.10;99.90;;;;;;4966219;28;20201;-72
2023/01/25 13:54:56;;;;;;;29.77;19.70;;;3.20;99.90;;;;;;4972631;28;20202;-71
2023/01/25 13:57:26;;;;;;;29.57;21.03;;;3.20;99.90;;;;;;4964731;28;20224;-73
2023/01/25 14:00:10;;;;;;;31.50;23.40;;;3.30;99.90;;;;;;4964003;28;20266;-72
2023/01/25 14:02:38;;;;;;;27.90;21.57;;;3.30;99.90;;;;;;4977517;28;20674;-72
2023/01/25 14:05:05;;;;;;;30.57;21.00;;;3.20;99.90;;;;;;4988518;28;20230;-72
2023/01/25 14:07:33;;;;;;;30.97;20.37;;;3.20;99.90;;;;;;4958319;28;20240;-72
2023/01/25 14:10:08;;;;;;;30.13;19.97;;;3.20;99.90;;;;;;4988422;28;20244;-72
2023/01/25 14:12:40;;;;;;;27.63;20.13;;;3.20;99.90;;;;;;4981045;28;20653;-72
2023/01/25 14:15:28;;;;;;;32.37;21.37;;;3.20;99.90;;;;;;4957984;28;20188;-72
2023/01/25 14:18:19;;;;;;;32.43;20.93;;;3.20;99.90;;;;;;4994710;28;20746;-72
2023/01/25 14:20:48;;;;;;;30.27;20.73;;;3.20;99.90;;;;;;4977220;28;20645;-72
2023/01/25 14:23:28;;;;;;;30.13;21.20;;;3.20;99.90;;;;;;4994879;28;20214;-72
2023/01/25 14:25:58;;;;;;;28.90;21.00;;;3.30;99.90;;;;;;4995015;28;20261;-72
2023/01/25 14:28:28;;;;;;;28.40;19.57;;;3.30;99.90;;;;;;4970257;28;20191;-73
2023/01/25 14:30:57;;;;;;;30.27;21.00;;;3.20;99.90;;;;;;4994900;28;20204;-73
2023/01/25 14:33:38;;;;;;;30.60;21.33;;;3.20;99.90;;;;;;4995114;28;20173;-72
2023/01/25 14:36:08;;;;;;;27.40;21.53;;;3.20;99.90;;;;;;4978148;28;20237;-76
2023/01/25 14:38:39;;;;;;;31.13;23.37;;;3.20;99.90;;;;;;4977211;28;20218;-73
2023/01/25 14:41:18;;;;;;;32.13;25.00;;;3.30;99.90;;;;;;4995384;28;20182;-71
2023/01/25 14:43:51;;;;;;;32.27;23.97;;;3.30;99.90;;;;;;4995162;28;20212;-73
2023/01/25 14:46:23;;;;;;;32.83;23.13;;;3.30;99.90;;;;;;4977646;28;20206;-72
2023/01/25 14:48:51;;;;;;;32.33;24.30;;;3.30;99.90;;;;;;4993986;28;20179;-72
2023/01/25 14:51:21;;;;;;;31.87;23.57;;;3.30;99.90;;;;;;4994597;28;20182;-72
2023/01/25 14:53:54;;;;;;;35.27;30.10;;;3.30;99.90;;;;;;4994630;28;20193;-75
2023/01/25 14:56:44;;;;;;;26.30;22.33;;;3.30;99.90;;;;;;4994128;28;20235;-73
2023/01/25 14:59:38;;;;;;;29.20;22.30;;;3.40;99.90;;;;;;4992821;28;20667;-73
2023/01/25 15:02:17;;;;;;;31.93;23.90;;;3.30;99.90;;;;;;4968023;28;20193;-73
2023/01/25 15:05:04;;;;;;;27.37;20.77;;;3.20;99.90;;;;;;4976775;28;20731;-73
2023/01/25 15:07:35;;;;;;;30.90;19.07;;;3.10;99.90;;;;;;4992984;28;20189;-74
2023/01/25 15:10:20;;;;;;;21.70;16.67;;;3.00;99.90;;;;;;4971618;28;20191;-74
2023/01/25 15:13:10;;;;;;;24.33;16.50;;;3.00;99.90;;;;;;4976512;28;20187;-74
2023/01/25 15:15:49;;;;;;;21.83;15.80;;;3.00;99.90;;;;;;4988848;28;20230;-73
2023/01/25 15:18:47;;;;;;;25.10;17.40;;;3.00;99.90;;;;;;4957296;28;20206;-73
2023/01/25 15:21:24;;;;;;;24.33;16.77;;;3.00;99.90;;;;;;4974858;28;20555;-73
2023/01/25 15:23:51;;;;;;;23.13;16.10;;;3.00;99.90;;;;;;4974835;28;20239;-73
2023/01/25 15:26:22;;;;;;;24.03;15.47;;;2.90;99.90;;;;;;4978157;28;20358;-74
2023/01/25 15:28:53;;;;;;;22.53;16.13;;;3.00;99.90;;;;;;4993596;28;20725;-74
2023/01/25 15:31:23;;;;;;;22.13;16.53;;;3.00;99.90;;;;;;4994134;28;20185;-74
2023/01/25 15:33:49;;;;;;;22.17;18.50;;;3.10;99.90;;;;;;4997341;28;20261;-73
2023/01/25 15:36:16;;;;;;;22.57;20.17;;;3.20;99.90;;;;;;4994144;28;20676;-73
2023/01/25 15:38:42;;;;;;;24.73;21.70;;;3.20;99.90;;;;;;4976555;28;20219;-73
2023/01/25 15:41:09;;;;;;;25.83;21.57;;;3.20;99.90;;;;;;4994057;28;20229;-71
2023/01/25 15:43:35;;;;;;;25.67;20.53;;;3.20;99.90;;;;;;4976575;28;20766;-73
2023/01/25 15:46:01;;;;;;;26.43;22.10;;;3.20;99.90;;;;;;4993517;28;20211;-73
2023/01/25 15:48:34;;;;;;;32.80;23.93;;;3.10;99.90;;;;;;4993354;28;20186;-73
2023/01/25 15:50:59;;;;;;;28.97;22.27;;;3.10;99.90;;;;;;4976462;28;20186;-73
2023/01/25 15:53:25;;;;;;;30.63;23.70;;;3.20;99.90;;;;;;4993580;28;20187;-72
2023/01/25 15:55:59;;;;;;;30.07;22.50;;;3.10;99.90;;;;;;4993358;28;20204;-71
2023/01/25 15:58:31;;;;;;;24.63;21.97;;;3.10;99.90;;;;;;4973651;28;20229;-72
2023/01/25 16:00:59;;;;;;;23.07;19.10;;;3.10;99.90;;;;;;4985605;28;20191;-73
2023/01/25 16:03:28;;;;;;;23.80;17.50;;;3.00;99.90;;;;;;4975665;28;20650;-72
2023/01/25 16:06:04;;;;;;;26.40;19.47;;;3.00;99.90;;;;;;4983615;28;20203;-73
2023/01/25 16:08:30;;;;;;;25.77;20.00;;;3.00;99.90;;;;;;4955710;28;20611;-73
2023/01/25 16:10:56;;;;;;;26.87;20.43;;;3.00;99.90;;;;;;4973777;28;20385;-74
2023/01/25 16:13:23;;;;;;;34.33;24.47;;;3.00;99.90;;;;;;4973342;28;20278;-72
2023/01/25 16:15:51;;;;;;;24.47;19.70;;;3.00;99.90;;;;;;4976647;28;20212;-73
2023/01/25 16:18:18;;;;;;;21.80;16.60;;;3.00;99.90;;;;;;4986342;28;20184;-73
2023/01/25 16:20:43;;;;;;;20.97;16.23;;;3.00;99.90;;;;;;4992241;28;20177;-73
2023/01/25 16:23:13;;;;;;;17.13;14.40;;;2.90;99.90;;;;;;4997569;28;20555;-79
2023/01/25 16:25:40;;;;;;;16.37;14.03;;;2.90;99.90;;;;;;4984215;28;20214;-83
2023/01/25 16:28:13;;;;;;;18.03;15.40;;;3.00;99.90;;;;;;4982227;28;20187;-79
2023/01/25 16:30:39;;;;;;;21.50;17.90;;;2.90;99.90;;;;;;4984896;28;20245;-80
2023/01/25 16:33:05;;;;;;;20.00;16.47;;;3.00;99.90;;;;;;4982400;28;20193;-78
2023/01/25 16:35:31;;;;;;;22.03;17.97;;;3.00;99.90;;;;;;4997638;28;20206;-79
2023/01/25 16:37:57;;;;;;;17.07;15.27;;;3.00;99.90;;;;;;4982621;28;20189;-79
2023/01/25 16:40:30;;;;;;;17.97;15.77;;;2.90;99.90;;;;;;4986318;28;20644;-76
2023/01/25 16:42:56;;;;;;;19.03;15.30;;;2.90;99.90;;;;;;4998792;28;20235;-79
2023/01/25 16:45:25;;;;;;;19.47;14.87;;;2.90;99.90;;;;;;4983222;28;20223;-77
2023/01/25 16:47:51;;;;;;;21.10;16.03;;;2.90;99.90;;;;;;4999356;28;20617;-79
2023/01/25 16:50:22;;;;;;;19.77;14.27;;;2.90;99.90;;;;;;4995845;28;20183;-80
2023/01/25 16:52:50;;;;;;;19.40;14.90;;;2.90;99.90;;;;;;4976885;28;20192;-78
2023/01/25 16:55:17;;;;;;;16.53;14.43;;;3.00;99.90;;;;;;4964739;28;20231;-79
2023/01/25 16:57:47;;;;;;;21.17;18.90;;;2.90;99.90;;;;;;4977772;28;20267;-78
2023/01/25 17:00:14;;;;;;;20.40;18.23;;;2.90;99.90;;;;;;4995040;28;20646;-77
2023/01/25 17:02:40;;;;;;;21.27;18.63;;;3.00;99.90;;;;;;4995053;28;20193;-77